createdAt,value
2022-10-17T00:02:07.234Z,99.41
2022-10-17T00:07:01.169Z,99.03
2022-10-17T00:09:27.616Z,99.62
2022-10-17T00:11:54.255Z,99.32
2022-10-17T00:14:20.732Z,99.59
2022-10-17T00:16:47.163Z,99.98
2022-10-17T00:19:13.635Z,100.00
2022-10-17T00:21:40.173Z,99.95
2022-10-17T00:24:06.837Z,100.00
2022-10-17T00:26:33.344Z,100.00
2022-10-17T00:28:59.875Z,100.00
2022-10-17T00:31:26.370Z,100.00
2022-10-17T00:33:53.280Z,100.00
2022-10-17T00:36:24.787Z,100.00
2022-10-17T00:38:56.715Z,100.00
2022-10-17T00:41:26.051Z,100.00
2022-10-17T00:43:57.156Z,100.00
2022-10-17T00:46:26.116Z,100.00
2022-10-17T00:48:54.040Z,100.00
2022-10-17T00:51:26.354Z,100.00
2022-10-17T00:53:52.915Z,100.00
2022-10-17T00:56:20.335Z,100.00
2022-10-17T00:58:47.714Z,100.00
2022-10-17T01:01:14.287Z,100.00
2022-10-17T01:03:40.827Z,100.00
2022-10-17T01:06:07.295Z,100.00
2022-10-17T01:08:33.805Z,100.00
2022-10-17T01:11:18.648Z,100.00
2022-10-17T01:13:48.430Z,100.00
2022-10-17T01:16:22.159Z,100.00
2022-10-17T01:19:01.413Z,100.00
2022-10-17T01:21:31.643Z,100.00
2022-10-17T01:24:16.552Z,100.00
2022-10-17T01:26:55.442Z,100.00
2022-10-17T01:29:33.989Z,100.00
2022-10-17T01:32:18.666Z,100.00
2022-10-17T01:34:54.607Z,100.00
2022-10-17T01:37:39.759Z,100.00
2022-10-17T01:40:10.597Z,100.00
2022-10-17T01:42:42.797Z,100.00
2022-10-17T01:45:16.899Z,100.00
2022-10-17T01:47:43.856Z,100.00
2022-10-17T01:50:18.534Z,100.00
2022-10-17T01:52:48.839Z,100.00
2022-10-17T01:55:20.450Z,100.00
2022-10-17T01:58:11.545Z,100.00
2022-10-17T02:00:38.491Z,100.00
2022-10-17T02:03:06.806Z,100.00
2022-10-17T02:05:36.753Z,100.00
2022-10-17T02:08:04.123Z,100.00
2022-10-17T02:10:43.847Z,100.00
2022-10-17T02:13:40.127Z,100.00
2022-10-17T02:16:44.362Z,100.00
2022-10-17T02:19:47.212Z,100.00
2022-10-17T02:22:41.504Z,100.00
2022-10-17T02:25:13.980Z,100.00
2022-10-17T02:27:47.755Z,100.00
2022-10-17T02:30:31.053Z,100.00
2022-10-17T02:33:05.876Z,100.00
2022-10-17T02:35:36.138Z,100.00
2022-10-17T02:38:04.014Z,100.00
2022-10-17T02:40:31.739Z,100.00
2022-10-17T02:42:59.337Z,100.00
2022-10-17T02:45:27.659Z,100.00
2022-10-17T02:48:15.615Z,100.00
2022-10-17T02:50:49.464Z,100.00
2022-10-17T02:53:23.920Z,100.00
2022-10-17T02:55:58.484Z,100.00
2022-10-17T02:58:29.041Z,100.00
2022-10-17T03:00:55.614Z,100.00
2022-10-17T03:03:27.687Z,100.00
2022-10-17T03:05:54.518Z,100.00
2022-10-17T03:08:21.404Z,100.00
2022-10-17T03:10:47.998Z,100.00
2022-10-17T03:13:15.277Z,100.00
2022-10-17T03:15:41.749Z,100.00
2022-10-17T03:18:08.446Z,100.00
2022-10-17T03:20:34.958Z,100.00
2022-10-17T03:23:01.524Z,100.00
2022-10-17T03:25:28.067Z,100.00
2022-10-17T03:27:54.846Z,100.00
2022-10-17T03:30:21.289Z,100.00
2022-10-17T03:32:47.722Z,100.00
2022-10-17T03:35:15.025Z,100.00
2022-10-17T03:37:41.724Z,100.00
2022-10-17T03:40:08.454Z,100.00
2022-10-17T03:42:34.928Z,100.00
2022-10-17T03:45:01.362Z,100.00
2022-10-17T03:47:28.988Z,100.00
2022-10-17T03:49:55.740Z,100.00
2022-10-17T03:52:22.292Z,100.00
2022-10-17T03:54:49.994Z,100.00
2022-10-17T03:57:17.109Z,100.00
2022-10-17T03:59:43.533Z,100.00
2022-10-17T04:02:09.972Z,100.00
2022-10-17T04:04:36.449Z,100.00
2022-10-17T04:07:03.060Z,100.00
2022-10-17T04:09:29.491Z,100.00
2022-10-17T04:11:55.966Z,100.00
2022-10-17T04:14:22.414Z,100.00
2022-10-17T04:16:48.857Z,100.00
2022-10-17T04:19:15.473Z,100.00
2022-10-17T04:21:41.890Z,100.00
2022-10-17T04:24:10.451Z,100.00
2022-10-17T04:26:36.922Z,100.00
2022-10-17T04:29:03.367Z,100.00
2022-10-17T04:31:29.842Z,100.00
2022-10-17T04:33:56.311Z,100.00
2022-10-17T04:36:23.409Z,100.00
2022-10-17T04:38:49.843Z,100.00
2022-10-17T04:41:17.726Z,100.00
2022-10-17T04:43:47.015Z,100.00
2022-10-17T04:46:16.990Z,100.00
2022-10-17T04:48:43.483Z,100.00
2022-10-17T04:51:18.774Z,100.00
2022-10-17T04:53:47.206Z,100.00
2022-10-17T04:56:17.042Z,100.00
2022-10-17T04:58:44.012Z,100.00
2022-10-17T05:01:13.068Z,100.00
2022-10-17T05:03:40.533Z,100.00
2022-10-17T05:06:12.283Z,100.00
2022-10-17T05:08:39.066Z,100.00
2022-10-17T05:11:06.319Z,100.00
2022-10-17T05:13:33.276Z,100.00
2022-10-17T05:16:00.966Z,100.00
2022-10-17T05:18:28.894Z,100.00
2022-10-17T05:20:55.492Z,100.00
2022-10-17T05:23:21.963Z,100.00
2022-10-17T05:25:48.446Z,100.00
2022-10-17T05:28:14.883Z,100.00
2022-10-17T05:30:41.393Z,100.00
2022-10-17T05:33:09.096Z,99.88
2022-10-17T05:35:36.048Z,99.64
2022-10-17T05:38:02.552Z,97.86
2022-10-17T05:40:28.987Z,97.53
2022-10-17T05:42:55.481Z,99.24
2022-10-17T05:45:22.164Z,99.34
2022-10-17T05:47:48.655Z,100.00
2022-10-17T05:50:15.170Z,100.00
2022-10-17T05:52:43.912Z,100.00
2022-10-17T05:55:13.049Z,100.00
2022-10-17T05:57:39.494Z,100.00
2022-10-17T06:00:06.701Z,100.00
2022-10-17T06:02:33.612Z,100.00
2022-10-17T06:05:00.249Z,100.00
2022-10-17T06:07:26.725Z,100.00
2022-10-17T06:09:53.199Z,100.00
2022-10-17T06:12:19.634Z,99.92
2022-10-17T06:14:46.093Z,100.00
2022-10-17T06:17:15.960Z,100.00
2022-10-17T06:19:44.425Z,100.00
2022-10-17T06:22:10.988Z,100.00
2022-10-17T06:24:37.405Z,100.00
2022-10-17T06:27:08.048Z,99.53
2022-10-17T06:29:38.519Z,98.83
2022-10-17T06:32:05.209Z,97.34
2022-10-17T06:34:31.709Z,98.54
2022-10-17T06:36:58.217Z,98.49
2022-10-17T06:39:26.879Z,98.35
2022-10-17T06:41:53.345Z,98.41
2022-10-17T06:44:19.826Z,96.95
2022-10-17T06:46:46.262Z,97.68
2022-10-17T06:49:12.706Z,97.71
2022-10-17T06:51:39.191Z,96.88
2022-10-17T06:54:05.718Z,96.31
2022-10-17T06:56:32.155Z,95.96
2022-10-17T06:58:58.653Z,96.37
2022-10-17T07:01:25.452Z,96.64
2022-10-17T07:03:52.285Z,96.49
2022-10-17T07:06:19.155Z,96.59
2022-10-17T07:08:46.100Z,96.61
2022-10-17T07:11:17.258Z,96.58
2022-10-17T07:13:44.110Z,94.62
2022-10-17T07:16:11.417Z,94.01
2022-10-17T07:18:38.737Z,94.19
2022-10-17T07:21:05.901Z,92.90
2022-10-17T07:23:34.297Z,93.39
2022-10-17T07:26:02.316Z,90.84
2022-10-17T07:28:29.196Z,90.00
2022-10-17T07:31:03.718Z,89.56
2022-10-17T07:33:30.197Z,88.88
2022-10-17T07:35:59.474Z,88.01
2022-10-17T07:38:26.451Z,86.04
2022-10-17T07:40:56.502Z,82.38
2022-10-17T07:43:24.251Z,81.60
2022-10-17T07:45:50.880Z,80.72
2022-10-17T07:48:19.908Z,81.14
2022-10-17T07:50:46.613Z,81.03
2022-10-17T07:53:13.092Z,80.32
2022-10-17T07:55:40.532Z,80.19
2022-10-17T07:58:07.256Z,80.01
2022-10-17T08:00:33.799Z,80.07
2022-10-17T08:03:00.393Z,79.47
2022-10-17T08:05:27.131Z,81.05
2022-10-17T08:07:53.573Z,81.48
2022-10-17T08:10:20.297Z,81.33
2022-10-17T08:12:46.838Z,80.22
2022-10-17T08:15:13.601Z,78.54
2022-10-17T08:17:41.464Z,78.62
2022-10-17T08:20:08.167Z,76.57
2022-10-17T08:22:34.932Z,73.89
2022-10-17T08:25:01.412Z,73.66
2022-10-17T08:27:28.878Z,75.88
2022-10-17T08:29:55.511Z,75.59
2022-10-17T08:32:24.957Z,76.98
2022-10-17T08:34:52.061Z,76.84
2022-10-17T08:37:18.592Z,76.67
2022-10-17T08:39:45.208Z,77.40
2022-10-17T08:42:11.547Z,77.96
2022-10-17T08:45:02.415Z,77.18
2022-10-17T08:47:43.459Z,76.62
2022-10-17T08:50:31.503Z,76.92
2022-10-17T08:53:03.392Z,76.80
2022-10-17T08:55:37.833Z,78.43
2022-10-17T08:58:21.182Z,79.59
2022-10-17T09:00:54.173Z,80.11
2022-10-17T09:03:37.139Z,80.62
2022-10-17T09:06:13.307Z,80.59
2022-10-17T09:08:51.748Z,79.55
2022-10-17T09:11:37.499Z,80.42
2022-10-17T09:14:06.698Z,78.31
2022-10-17T09:16:45.354Z,76.58
2022-10-17T09:19:28.544Z,75.52
2022-10-17T09:22:00.069Z,75.98
2022-10-17T09:24:47.515Z,76.24
2022-10-17T09:27:23.416Z,76.52
2022-10-17T09:29:52.934Z,76.42
2022-10-17T09:32:23.011Z,75.98
2022-10-17T09:34:49.631Z,76.14
2022-10-17T09:37:17.001Z,75.41
2022-10-17T09:39:44.232Z,74.66
2022-10-17T09:42:14.967Z,75.04
2022-10-17T09:45:01.564Z,74.83
2022-10-17T09:47:47.643Z,73.91
2022-10-17T09:50:23.054Z,74.76
2022-10-17T09:52:50.864Z,74.49
2022-10-17T09:55:21.435Z,74.23
2022-10-17T09:57:58.375Z,72.35
2022-10-17T10:00:29.087Z,74.18
2022-10-17T10:03:15.587Z,74.77
2022-10-17T10:05:43.462Z,76.10
2022-10-17T10:08:17.970Z,77.73
2022-10-17T10:10:45.247Z,78.87
2022-10-17T10:13:14.787Z,78.69
2022-10-17T10:15:43.736Z,79.03
2022-10-17T10:21:13.380Z,79.59
2022-10-17T10:23:42.446Z,79.34
2022-10-17T10:26:24.039Z,79.67
2022-10-17T10:28:53.799Z,79.90
2022-10-17T10:31:27.320Z,79.82
2022-10-17T10:33:56.859Z,79.97
2022-10-17T10:36:24.523Z,78.91
2022-10-17T10:38:57.158Z,78.71
2022-10-17T10:41:27.732Z,77.93
2022-10-17T10:43:55.024Z,78.23
2022-10-17T10:46:27.389Z,77.96
2022-10-17T10:48:59.753Z,78.50
2022-10-17T10:51:34.543Z,77.91
2022-10-17T10:54:23.995Z,77.40
2022-10-17T10:56:53.578Z,77.58
2022-10-17T10:59:27.249Z,75.06
2022-10-17T11:02:13.204Z,73.71
2022-10-17T11:05:01.350Z,73.99
2022-10-17T11:07:46.122Z,74.41
2022-10-17T11:10:37.876Z,74.67
2022-10-17T11:13:11.839Z,74.91
2022-10-17T11:15:41.995Z,76.80
2022-10-17T11:18:33.046Z,77.67
2022-10-17T11:21:21.255Z,78.53
2022-10-17T11:23:52.226Z,76.95
2022-10-17T11:26:26.693Z,76.25
2022-10-17T11:28:54.377Z,74.68
2022-10-17T11:31:22.494Z,73.29
2022-10-17T11:34:12.117Z,71.47
2022-10-17T11:36:42.082Z,70.80
2022-10-17T11:39:16.169Z,70.31
2022-10-17T11:41:45.715Z,71.78
2022-10-17T11:44:17.973Z,72.87
2022-10-17T11:46:46.360Z,72.39
2022-10-17T11:49:25.197Z,71.71
2022-10-17T11:52:00.407Z,72.58
2022-10-17T11:54:54.334Z,73.03
2022-10-17T11:57:37.332Z,72.70
2022-10-17T12:00:41.721Z,71.31
2022-10-17T12:03:45.877Z,71.76
2022-10-17T12:06:17.747Z,72.10
2022-10-17T12:08:47.235Z,73.07
2022-10-17T12:11:37.188Z,75.17
2022-10-17T12:14:05.766Z,75.40
2022-10-17T12:16:35.449Z,76.22
2022-10-17T12:19:02.901Z,76.11
2022-10-17T12:22:02.406Z,76.84
2022-10-17T12:24:35.842Z,76.92
2022-10-17T12:27:29.839Z,77.27
2022-10-17T12:30:05.669Z,76.25
2022-10-17T12:32:47.030Z,76.71
2022-10-17T12:35:22.170Z,75.64
2022-10-17T12:37:48.473Z,74.86
2022-10-17T12:40:36.541Z,73.90
2022-10-17T12:43:15.322Z,74.08
2022-10-17T12:45:48.023Z,73.16
2022-10-17T12:48:33.090Z,73.53
2022-10-17T12:51:35.385Z,73.59
2022-10-17T12:54:10.598Z,74.69
2022-10-17T12:56:55.665Z,74.43
2022-10-17T12:59:28.541Z,73.72
2022-10-17T13:01:58.786Z,74.23
2022-10-17T13:04:25.827Z,75.10
2022-10-17T13:06:55.113Z,75.00
2022-10-17T13:09:27.570Z,75.90
2022-10-17T13:11:55.091Z,76.57
2022-10-17T13:14:23.113Z,76.65
2022-10-17T13:16:58.240Z,76.64
2022-10-17T13:19:30.659Z,75.80
2022-10-17T13:22:06.082Z,75.17
2022-10-17T13:24:38.798Z,74.85
2022-10-17T13:27:07.232Z,74.68
2022-10-17T13:29:33.851Z,74.74
2022-10-17T13:32:03.854Z,74.64
2022-10-17T13:34:32.678Z,74.50
2022-10-17T13:37:04.666Z,74.29
2022-10-17T13:39:54.393Z,74.84
2022-10-17T13:42:45.409Z,74.36
2022-10-17T13:45:25.115Z,73.99
2022-10-17T13:47:51.650Z,74.19
2022-10-17T13:50:43.031Z,73.72
2022-10-17T13:53:12.969Z,73.21
2022-10-17T13:56:09.117Z,73.94
2022-10-17T13:58:49.038Z,73.63
2022-10-17T14:01:21.363Z,74.76
2022-10-17T14:03:51.761Z,74.97
2022-10-17T14:06:30.044Z,76.21
2022-10-17T14:09:05.394Z,76.23
2022-10-17T14:11:40.758Z,76.11
2022-10-17T14:14:29.114Z,76.97
2022-10-17T14:16:57.493Z,77.29
2022-10-17T14:19:30.602Z,77.93
2022-10-17T14:22:20.034Z,77.95
2022-10-17T14:24:46.949Z,78.39
2022-10-17T14:27:46.572Z,78.91
2022-10-17T14:33:50.857Z,80.06
2022-10-17T14:36:44.115Z,80.40
2022-10-17T14:39:22.708Z,80.01
2022-10-17T14:41:52.271Z,80.77
2022-10-17T14:44:25.722Z,81.20
2022-10-17T14:46:59.437Z,81.78
2022-10-17T14:49:33.870Z,82.49
2022-10-17T14:52:24.830Z,82.71
2022-10-17T14:54:51.492Z,83.17
2022-10-17T14:57:50.180Z,83.31
2022-10-17T15:00:18.464Z,84.10
2022-10-17T15:02:45.987Z,84.58
2022-10-17T15:05:15.473Z,85.01
2022-10-17T15:07:42.653Z,85.00
2022-10-17T15:10:26.471Z,85.58
2022-10-17T15:13:27.662Z,85.83
2022-10-17T15:15:55.425Z,86.09
2022-10-17T15:18:21.895Z,86.23
2022-10-17T15:20:52.664Z,86.43
2022-10-17T15:23:27.175Z,86.65
2022-10-17T15:25:53.774Z,87.50
2022-10-17T15:28:20.411Z,87.64
2022-10-17T15:30:46.914Z,87.92
2022-10-17T15:33:13.388Z,87.96
2022-10-17T15:35:39.837Z,88.06
2022-10-17T15:38:07.063Z,88.55
2022-10-17T15:40:34.537Z,88.73
2022-10-17T15:43:01.064Z,89.17
2022-10-17T15:45:29.966Z,89.28
2022-10-17T15:48:01.842Z,89.66
2022-10-17T15:50:30.573Z,89.75
2022-10-17T15:52:57.080Z,90.25
2022-10-17T15:55:23.570Z,90.31
2022-10-17T15:57:50.035Z,90.67
2022-10-17T16:00:19.243Z,90.42
2022-10-17T16:02:46.466Z,90.72
2022-10-17T16:05:16.282Z,90.95
2022-10-17T16:07:48.368Z,91.15
2022-10-17T16:10:15.586Z,91.72
2022-10-17T16:12:42.875Z,92.18
2022-10-17T16:15:14.372Z,92.39
2022-10-17T16:17:41.664Z,92.65
2022-10-17T16:20:11.135Z,93.02
2022-10-17T16:22:38.117Z,93.10
2022-10-17T16:25:10.132Z,93.44
2022-10-17T16:27:37.258Z,93.41
2022-10-17T16:30:07.883Z,93.42
2022-10-17T16:32:34.387Z,93.61
2022-10-17T16:35:01.870Z,93.88
2022-10-17T16:37:28.329Z,94.21
2022-10-17T16:39:55.058Z,94.41
2022-10-17T16:42:21.529Z,94.15
2022-10-17T16:44:50.226Z,94.86
2022-10-17T16:47:17.879Z,94.67
2022-10-17T16:49:45.433Z,94.82
2022-10-17T16:52:12.219Z,95.00
2022-10-17T16:54:38.664Z,95.25
2022-10-17T16:57:05.291Z,95.52
2022-10-17T16:59:31.747Z,95.68
2022-10-17T17:01:59.813Z,95.77
2022-10-17T17:04:26.378Z,95.63
2022-10-17T17:06:52.885Z,95.92
2022-10-17T17:09:19.327Z,95.78
2022-10-17T17:11:45.917Z,95.80
2022-10-17T17:14:12.678Z,95.46
2022-10-17T17:16:39.136Z,95.46
2022-10-17T17:19:10.917Z,95.58
2022-10-17T17:21:37.412Z,95.65
2022-10-17T17:24:04.466Z,95.37
2022-10-17T17:26:36.252Z,95.30
2022-10-17T17:29:03.281Z,95.35
2022-10-17T17:31:31.639Z,95.34
2022-10-17T17:33:58.529Z,95.04
2022-10-17T17:36:27.252Z,95.20
2022-10-17T17:38:57.919Z,94.68
2022-10-17T17:41:26.637Z,94.34
2022-10-17T17:43:53.704Z,94.06
2022-10-17T17:46:21.370Z,93.95
2022-10-17T17:48:48.927Z,93.43
2022-10-17T17:51:29.054Z,93.20
2022-10-17T17:53:56.251Z,92.91
2022-10-17T17:56:25.101Z,92.34
2022-10-17T17:59:01.740Z,92.16
2022-10-17T18:01:37.871Z,91.86
2022-10-17T18:04:06.862Z,91.76
2022-10-17T18:06:33.313Z,91.30
2022-10-17T18:09:00.012Z,91.37
2022-10-17T18:11:27.212Z,91.04
2022-10-17T18:14:05.664Z,90.56
2022-10-17T18:16:33.629Z,90.43
2022-10-17T18:19:04.316Z,90.12
2022-10-17T18:21:33.862Z,90.20
2022-10-17T18:24:00.403Z,89.96
2022-10-17T18:26:27.168Z,89.78
2022-10-17T18:28:53.776Z,89.44
2022-10-17T18:31:28.200Z,89.22
2022-10-17T18:33:56.731Z,89.37
2022-10-17T18:36:23.415Z,89.15
2022-10-17T18:38:49.919Z,89.07
2022-10-17T18:41:23.184Z,88.89
2022-10-17T18:43:50.534Z,88.65
2022-10-17T18:46:22.514Z,88.64
2022-10-17T18:48:49.813Z,88.30
2022-10-17T18:51:18.524Z,88.04
2022-10-17T18:53:47.741Z,87.63
2022-10-17T18:56:14.502Z,87.42
2022-10-17T18:58:41.319Z,87.04
2022-10-17T19:01:15.511Z,86.70
2022-10-17T19:03:48.541Z,85.85
2022-10-17T19:06:17.779Z,85.85
2022-10-17T19:08:44.977Z,85.22
2022-10-17T19:11:17.024Z,84.83
2022-10-17T19:13:47.183Z,84.81
2022-10-17T19:16:20.271Z,84.40
2022-10-17T19:19:01.662Z,84.18
2022-10-17T19:21:28.159Z,84.26
2022-10-17T19:23:59.350Z,84.13
2022-10-17T19:26:27.525Z,83.94
2022-10-17T19:28:54.410Z,83.75
2022-10-17T19:31:26.528Z,83.52
2022-10-17T19:33:54.880Z,83.10
2022-10-17T19:36:28.872Z,82.69
2022-10-17T19:38:58.850Z,82.81
2022-10-17T19:41:25.720Z,82.44
2022-10-17T19:43:52.228Z,82.37
2022-10-17T19:46:21.678Z,81.96
2022-10-17T19:48:49.563Z,81.47
2022-10-17T19:51:19.025Z,81.96
2022-10-17T19:53:46.241Z,81.62
2022-10-17T19:56:12.967Z,81.73
2022-10-17T19:58:46.424Z,80.94
2022-10-17T20:01:19.273Z,81.07
2022-10-17T20:03:46.101Z,80.78
2022-10-17T20:06:12.565Z,80.77
2022-10-17T20:08:43.145Z,80.86
2022-10-17T20:11:13.965Z,80.99
2022-10-17T20:13:43.088Z,79.83
2022-10-17T20:16:13.524Z,80.41
2022-10-17T20:18:41.187Z,80.25
2022-10-17T20:21:13.436Z,80.56
2022-10-17T20:23:40.557Z,79.31
2022-10-17T20:26:25.929Z,80.00
2022-10-17T20:29:02.139Z,79.68
2022-10-17T20:31:29.255Z,79.55
2022-10-17T20:33:59.687Z,79.68
2022-10-17T20:36:26.539Z,79.74
2022-10-17T20:38:57.416Z,79.68
2022-10-17T20:41:24.873Z,80.28
2022-10-17T20:43:52.355Z,80.29
2022-10-17T20:46:34.953Z,80.24
2022-10-17T20:49:03.284Z,79.99
2022-10-17T20:51:29.750Z,79.82
2022-10-17T20:56:26.584Z,79.62
2022-10-17T20:58:55.350Z,79.07
2022-10-17T21:01:23.051Z,78.50
2022-10-17T21:03:49.913Z,78.60
2022-10-17T21:06:17.585Z,78.54
2022-10-17T21:08:45.271Z,78.76
2022-10-17T21:11:19.737Z,79.04
2022-10-17T21:13:47.899Z,78.10
2022-10-17T21:16:18.381Z,78.53
2022-10-17T21:18:45.198Z,78.66
2022-10-17T21:21:20.074Z,78.29
2022-10-17T21:23:48.218Z,78.74
2022-10-17T21:26:15.718Z,78.68
2022-10-17T21:28:43.110Z,78.64
2022-10-17T21:31:26.646Z,78.63
2022-10-17T21:33:56.016Z,78.61
2022-10-17T21:36:23.958Z,78.79
2022-10-17T21:38:52.653Z,79.33
2022-10-17T21:41:20.790Z,79.52
2022-10-17T21:43:47.860Z,79.57
2022-10-17T21:46:18.053Z,79.69
2022-10-17T21:48:45.602Z,79.66
2022-10-17T21:51:14.133Z,79.25
2022-10-17T21:53:40.961Z,79.49
2022-10-17T21:56:11.180Z,79.39
2022-10-17T21:58:37.948Z,79.29
2022-10-17T22:01:08.363Z,79.18
2022-10-17T22:03:36.312Z,79.00
2022-10-17T22:06:34.545Z,78.63
2022-10-17T22:08:53.378Z,78.85
2022-10-17T22:11:28.547Z,78.26
2022-10-17T22:14:00.707Z,77.90
2022-10-17T22:16:27.482Z,78.32
2022-10-17T22:19:03.115Z,78.61
2022-10-17T22:21:34.116Z,78.16
2022-10-17T22:24:02.260Z,77.90
2022-10-17T22:26:30.486Z,77.50
2022-10-17T22:28:57.114Z,77.27
2022-10-17T22:31:23.617Z,78.09
2022-10-17T22:33:50.052Z,77.78
2022-10-17T22:36:16.984Z,77.79
2022-10-17T22:38:43.411Z,78.14
2022-10-17T22:41:09.876Z,78.52
2022-10-17T22:43:36.364Z,78.19
2022-10-17T22:46:04.926Z,78.48
2022-10-17T22:48:31.679Z,78.91
2022-10-17T22:50:59.120Z,78.75
2022-10-17T22:53:26.804Z,79.20
2022-10-17T22:56:08.009Z,79.13
2022-10-17T22:58:35.610Z,79.39
2022-10-17T23:01:02.659Z,79.84
2022-10-17T23:03:30.490Z,80.36
2022-10-17T23:05:57.523Z,80.67
2022-10-17T23:08:24.658Z,80.57
2022-10-17T23:10:51.157Z,80.87
2022-10-17T23:13:18.703Z,81.32
2022-10-17T23:15:45.516Z,81.47
2022-10-17T23:18:11.985Z,81.92
2022-10-17T23:20:38.480Z,81.46
2022-10-17T23:23:05.052Z,81.76
2022-10-17T23:25:33.668Z,82.11
2022-10-17T23:28:00.574Z,82.58
2022-10-17T23:30:27.100Z,82.96
2022-10-17T23:32:53.613Z,82.91
2022-10-17T23:35:20.083Z,83.16
2022-10-17T23:38:05.346Z,83.36
2022-10-17T23:40:31.845Z,84.01
2022-10-17T23:42:58.268Z,83.81
2022-10-17T23:45:24.769Z,84.35
2022-10-17T23:47:51.245Z,84.57
2022-10-17T23:50:17.755Z,85.12
2022-10-17T23:52:44.250Z,85.50
2022-10-17T23:55:10.855Z,86.15
2022-10-17T23:57:37.294Z,85.86
